Time;durP1;ratioP1;P1;durP2;ratioP2;P2;SDS_P1;SDS_P2;PMS_P1;PMS_P2;Temp;Humidity;BMP_temperature;BMP_pressure;BME280_temperature;BME280_humidity;BME280_pressure;Samples;Min_cycle;Max_cycle;Signal;HPM_P1;HPM_P2
2021/10/17 00:01:31;;;;;;;8.25;4.30;;;;;;;4.49;84.17;98374.19;4990869;28;20042;-59
2021/10/17 00:03:57;;;;;;;8.70;4.40;;;;;;;4.40;82.93;98381.16;4989031;28;20093;-61
2021/10/17 00:06:27;;;;;;;9.30;4.07;;;;;;;4.53;82.67;98378.44;4990316;28;20060;-62
2021/10/17 00:08:53;;;;;;;7.90;3.70;;;;;;;4.59;84.38;98375.78;4992218;28;20029;-60
2021/10/17 00:11:18;;;;;;;6.35;3.97;;;;;;;4.72;81.68;98385.09;4988182;28;20050;-60
2021/10/17 00:13:44;;;;;;;8.77;4.25;;;;;;;4.28;83.63;98388.16;4990062;28;20038;-60
2021/10/17 00:16:09;;;;;;;7.45;3.70;;;;;;;4.35;83.52;98380.34;4990698;28;20043;-60
2021/10/17 00:18:37;;;;;;;7.78;4.60;;;;;;;4.14;82.81;98380.56;4990059;28;20041;-59
2021/10/17 00:21:02;;;;;;;7.43;4.47;;;;;;;4.32;82.34;98382.09;4990545;28;20038;-60
2021/10/17 00:23:28;;;;;;;9.55;4.65;;;;;;;4.15;83.93;98377.09;4988252;28;20034;-61
2021/10/17 00:25:53;;;;;;;8.18;4.22;;;;;;;4.09;83.39;98382.31;4993693;28;20038;-59
2021/10/17 00:28:18;;;;;;;8.05;3.80;;;;;;;4.21;84.57;98382.22;4988564;28;20768;-60
2021/10/17 00:30:44;;;;;;;4.68;2.90;;;;;;;4.69;83.23;98380.00;4988603;28;20037;-61
2021/10/17 00:33:10;;;;;;;8.00;3.97;;;;;;;4.43;80.99;98383.72;4990427;28;20395;-60
2021/10/17 00:35:36;;;;;;;7.85;3.72;;;;;;;4.58;83.01;98384.44;4993325;28;20057;-59
2021/10/17 00:38:01;;;;;;;8.18;4.22;;;;;;;4.16;82.56;98383.97;4995419;28;20065;-60
2021/10/17 00:40:26;;;;;;;9.95;4.40;;;;;;;3.66;83.87;98379.22;4995157;28;20034;-59
2021/10/17 00:42:56;;;;;;;7.82;4.13;;;;;;;3.62;83.78;98387.84;4993278;28;20030;-60
2021/10/17 00:45:32;;;;;;;7.63;3.90;;;;;;;3.83;84.69;98378.22;4991685;28;20069;-59
2021/10/17 00:47:59;;;;;;;6.80;3.22;;;;;;;4.36;83.87;98382.06;4994313;28;20015;-60
2021/10/17 00:50:25;;;;;;;8.23;4.30;;;;;;;4.24;81.45;98384.75;4992507;28;20510;-59
2021/10/17 00:52:53;;;;;;;5.40;2.70;;;;;;;4.51;82.65;98388.78;4992938;28;20121;-60
2021/10/17 00:55:22;;;;;;;7.32;4.20;;;;;;;3.79;83.29;98379.13;4995474;28;20077;-62
2021/10/17 00:57:48;;;;;;;7.55;3.92;;;;;;;4.18;84.31;98377.06;4993045;28;20058;-60
2021/10/17 01:00:15;;;;;;;9.48;3.90;;;;;;;3.72;84.13;98375.72;4991739;28;20538;-59
2021/10/17 01:02:41;;;;;;;8.63;4.50;;;;;;;3.61;83.77;98375.81;4994791;28;20670;-60
2021/10/17 01:05:15;;;;;;;8.65;4.22;;;;;;;3.62;82.81;98386.97;4997398;28;20034;-60
2021/10/17 01:07:41;;;;;;;7.20;4.07;;;;;;;3.30;84.02;98374.28;4995639;28;20028;-60
2021/10/17 01:10:07;;;;;;;5.57;2.80;;;;;;;4.16;84.09;98368.50;4992185;28;20022;-60
2021/10/17 01:12:32;;;;;;;5.82;3.50;;;;;;;4.12;82.09;98361.63;5002335;28;20030;-60
2021/10/17 01:14:57;;;;;;;9.30;4.43;;;;;;;3.73;83.90;98364.56;4993319;28;20038;-60
2021/10/17 01:17:23;;;;;;;10.48;5.13;;;;;;;3.36;85.57;98371.66;4993183;28;20693;-60
2021/10/17 01:19:48;;;;;;;8.07;3.85;;;;;;;4.21;82.37;98366.72;4996644;28;20113;-59
2021/10/17 01:22:18;;;;;;;11.02;5.97;;;;;;;3.70;82.70;98363.72;4994888;28;20069;-59
2021/10/17 01:24:43;;;;;;;10.45;5.28;;;;;;;3.78;82.78;98362.78;4993493;28;20029;-60
2021/10/17 01:27:08;;;;;;;11.27;5.30;;;;;;;3.55;82.34;98355.22;4993866;28;20720;-61
2021/10/17 01:29:34;;;;;;;11.18;5.03;;;;;;;3.51;83.13;98369.00;4996601;28;20029;-60
2021/10/17 01:32:00;;;;;;;9.73;5.07;;;;;;;3.48;82.45;98354.41;4993670;28;20132;-61
2021/10/17 01:34:26;;;;;;;9.75;4.65;;;;;;;3.40;82.86;98355.31;4991719;28;20077;-60
2021/10/17 01:36:52;;;;;;;8.00;4.32;;;;;;;4.04;82.25;98352.25;4993117;28;20131;-60
2021/10/17 01:39:20;;;;;;;10.90;4.72;;;;;;;3.39;84.24;98356.19;4994092;28;20169;-60
2021/10/17 01:41:47;;;;;;;8.52;4.15;;;;;;;3.72;84.76;98356.81;4992548;28;20575;-61
2021/10/17 01:44:32;;;;;;;9.55;4.78;;;;;;;3.48;85.56;98353.53;4994601;28;20082;-61
2021/10/17 01:46:58;;;;;;;9.13;4.43;;;;;;;3.43;83.97;98356.13;4992242;28;20050;-60
2021/10/17 01:49:23;;;;;;;9.68;4.80;;;;;;;3.23;83.22;98356.25;5002411;28;20050;-60
2021/10/17 01:51:49;;;;;;;8.50;4.88;;;;;;;3.31;82.85;98351.09;4994589;28;20881;-61
2021/10/17 01:54:14;;;;;;;9.05;4.63;;;;;;;3.45;82.44;98356.13;4995987;28;20030;-60
2021/10/17 01:56:40;;;;;;;3.78;2.47;;;;;;;4.39;83.04;98351.03;4995063;28;20030;-61
2021/10/17 01:59:06;;;;;;;13.05;4.43;;;;;;;3.75;81.43;98356.78;4994627;28;20081;-60
2021/10/17 02:01:32;;;;;;;8.07;4.55;;;;;;;3.27;82.04;98355.41;4992684;28;20046;-61
2021/10/17 02:04:01;;;;;;;4.78;3.03;;;;;;;3.60;83.55;98356.06;4992335;28;20109;-60
2021/10/17 02:06:28;;;;;;;10.25;4.47;;;;;;;3.25;82.81;98348.53;4992332;28;20050;-60
2021/10/17 02:08:54;;;;;;;8.60;4.50;;;;;;;2.81;84.00;98353.06;4994467;28;20030;-62
2021/10/17 02:11:19;;;;;;;9.63;4.53;;;;;;;3.11;83.47;98343.47;4990649;28;20056;-60
2021/10/17 02:13:45;;;;;;;6.97;4.32;;;;;;;3.25;83.71;98338.22;4992932;28;20026;-60
2021/10/17 02:16:10;;;;;;;11.57;4.78;;;;;;;2.83;84.76;98343.59;4990872;28;20080;-61
2021/10/17 02:18:35;;;;;;;7.93;4.30;;;;;;;3.06;86.24;98345.22;4992267;28;20504;-60
2021/10/17 02:21:01;;;;;;;8.30;4.30;;;;;;;3.33;84.94;98343.31;4989581;28;20069;-61
2021/10/17 02:23:27;;;;;;;13.27;5.00;;;;;;;3.00;84.23;98345.25;4992037;28;20813;-61
2021/10/17 02:25:53;;;;;;;7.65;4.30;;;;;;;3.04;84.43;98346.94;4991393;28;20153;-62
2021/10/17 02:28:18;;;;;;;8.00;4.28;;;;;;;3.01;84.88;98341.78;4991982;28;20026;-61
2021/10/17 02:30:43;;;;;;;8.63;3.45;;;;;;;3.43;84.03;98344.97;4992563;28;20045;-60
2021/10/17 02:33:09;;;;;;;7.30;4.38;;;;;;;3.18;82.83;98344.28;4992407;28;20030;-62
2021/10/17 02:35:34;;;;;;;7.57;4.38;;;;;;;3.18;83.22;98334.84;4992566;28;20073;-60
2021/10/17 02:37:59;;;;;;;9.32;4.80;;;;;;;3.38;81.96;98339.88;4991502;28;20030;-60
2021/10/17 02:40:25;;;;;;;7.10;3.97;;;;;;;3.69;81.88;98338.78;4990008;28;20077;-63
2021/10/17 02:42:50;;;;;;;7.03;3.92;;;;;;;3.38;82.54;98341.56;4991011;28;20079;-62
2021/10/17 02:45:16;;;;;;;6.82;3.33;;;;;;;3.17;84.20;98338.25;4990995;28;20026;-61
2021/10/17 02:47:41;;;;;;;9.15;4.38;;;;;;;2.91;83.74;98345.28;4992820;28;20026;-60
2021/10/17 02:50:07;;;;;;;8.25;4.82;;;;;;;2.97;83.55;98342.69;4990037;28;20068;-60
2021/10/17 02:52:33;;;;;;;8.32;4.20;;;;;;;2.92;83.88;98342.69;4988640;28;20027;-61
2021/10/17 02:55:01;;;;;;;9.23;4.68;;;;;;;2.73;84.79;98341.91;4991918;28;20238;-60
2021/10/17 02:57:26;;;;;;;8.05;3.78;;;;;;;3.15;86.06;98337.41;4989355;28;20244;-60
2021/10/17 02:59:54;;;;;;;6.97;4.05;;;;;;;3.25;83.18;98344.25;4992657;28;20037;-59
2021/10/17 03:02:20;;;;;;;6.47;3.90;;;;;;;3.28;85.32;98333.03;4989360;28;20129;-60
2021/10/17 03:04:48;;;;;;;10.23;4.20;;;;;;;3.05;83.60;98334.06;4991155;28;20149;-60
2021/10/17 03:07:14;;;;;;;8.00;3.90;;;;;;;3.26;83.19;98337.38;4988597;28;20629;-62
2021/10/17 03:09:39;;;;;;;5.90;3.50;;;;;;;3.36;84.24;98330.41;4990518;28;20543;-60
2021/10/17 03:12:05;;;;;;;7.57;3.90;;;;;;;3.39;81.31;98332.97;4990686;28;20494;-62
2021/10/17 03:14:30;;;;;;;5.15;2.88;;;;;;;3.74;82.74;98331.84;4991132;28;20466;-61
2021/10/17 03:16:58;;;;;;;5.57;3.13;;;;;;;3.67;82.58;98329.31;4992931;28;20121;-59
2021/10/17 03:19:23;;;;;;;8.02;4.10;;;;;;;3.01;82.75;98332.34;4992607;28;20072;-61
2021/10/17 03:21:48;;;;;;;6.85;3.78;;;;;;;3.67;80.86;98334.47;4987484;28;20105;-60
2021/10/17 03:24:14;;;;;;;9.68;4.15;;;;;;;3.44;83.66;98332.09;4992005;28;20030;-60
2021/10/17 03:26:39;;;;;;;6.63;3.08;;;;;;;3.47;82.42;98336.34;4990620;28;20125;-60
2021/10/17 03:29:05;;;;;;;5.20;2.63;;;;;;;3.56;85.99;98346.59;4992172;28;20037;-60
2021/10/17 03:31:33;;;;;;;5.20;3.30;;;;;;;3.45;83.25;98338.09;4989860;28;20596;-60
2021/10/17 03:33:59;;;;;;;4.88;3.00;;;;;;;3.81;81.77;98336.94;4990078;28;20030;-60
2021/10/17 03:36:24;;;;;;;8.60;4.03;;;;;;;3.69;81.24;98344.78;4989826;28;20053;-60
2021/10/17 03:38:50;;;;;;;6.85;4.05;;;;;;;3.04;83.26;98341.78;4990129;28;20101;-62
2021/10/17 03:41:15;;;;;;;7.40;3.70;;;;;;;3.35;85.06;98336.44;4988338;28;20064;-60
2021/10/17 03:43:40;;;;;;;6.55;3.88;;;;;;;3.14;81.41;98333.13;4990384;28;20065;-60
2021/10/17 03:46:06;;;;;;;7.22;4.05;;;;;;;3.25;82.00;98339.09;4992312;28;20840;-61
2021/10/17 03:48:32;;;;;;;8.05;3.90;;;;;;;3.02;82.69;98338.38;4989325;28;20033;-60
2021/10/17 03:50:57;;;;;;;6.00;3.05;;;;;;;3.41;82.22;98337.25;4989516;28;20054;-60
2021/10/17 03:53:23;;;;;;;6.13;3.55;;;;;;;2.97;82.09;98337.53;4992874;28;20081;-60
2021/10/17 03:55:51;;;;;;;5.32;3.30;;;;;;;3.36;83.10;98343.31;4989823;28;20503;-60
2021/10/17 03:58:16;;;;;;;10.45;3.97;;;;;;;3.37;81.93;98334.72;4991274;28;20773;-60
2021/10/17 04:00:42;;;;;;;9.30;3.97;;;;;;;2.93;83.21;98339.25;4989616;28;20044;-59
2021/10/17 04:03:07;;;;;;;8.18;3.63;;;;;;;3.19;82.26;98326.22;4990052;28;20036;-61
2021/10/17 04:05:33;;;;;;;7.72;3.33;;;;;;;3.59;82.99;98341.44;4991282;28;20042;-60
2021/10/17 04:07:58;;;;;;;6.30;3.92;;;;;;;3.65;83.70;98336.22;4990167;28;20452;-60
2021/10/17 04:10:24;;;;;;;6.40;3.75;;;;;;;3.57;85.96;98334.56;4993826;28;20030;-62
2021/10/17 04:12:49;;;;;;;8.43;3.95;;;;;;;3.47;81.70;98328.59;4994879;28;20037;-60
2021/10/17 04:15:17;;;;;;;12.10;4.18;;;;;;;3.01;83.07;98336.63;4994339;28;20153;-61
2021/10/17 04:17:43;;;;;;;8.60;3.88;;;;;;;3.22;82.71;98336.53;4994627;28;20029;-60
2021/10/17 04:20:11;;;;;;;6.90;3.78;;;;;;;3.32;82.67;98336.47;4997499;28;20562;-62
2021/10/17 04:22:36;;;;;;;7.47;3.58;;;;;;;3.41;82.57;98331.25;4994753;28;20148;-61
2021/10/17 04:25:03;;;;;;;6.88;3.65;;;;;;;3.91;82.57;98332.56;4993876;28;20045;-59
2021/10/17 04:27:29;;;;;;;7.35;3.97;;;;;;;3.77;81.93;98334.44;4993864;28;20026;-60
2021/10/17 04:29:58;;;;;;;7.35;4.10;;;;;;;3.52;82.83;98334.59;4995038;28;20596;-61
2021/10/17 04:32:23;;;;;;;8.43;4.32;;;;;;;3.62;82.95;98336.25;4992514;28;20050;-60
2021/10/17 04:34:48;;;;;;;7.53;3.85;;;;;;;3.84;83.28;98338.63;4995357;28;20072;-60
2021/10/17 04:37:14;;;;;;;6.97;4.00;;;;;;;3.74;83.10;98329.28;4993601;28;20031;-60
2021/10/17 04:39:40;;;;;;;6.20;3.40;;;;;;;4.15;82.87;98340.94;4992603;28;20038;-60
2021/10/17 04:42:05;;;;;;;7.53;3.60;;;;;;;4.43;81.63;98337.22;4993672;28;20611;-60
2021/10/17 04:44:33;;;;;;;7.53;4.00;;;;;;;3.79;82.87;98332.69;4992868;28;20030;-60
2021/10/17 04:46:58;;;;;;;8.68;4.00;;;;;;;4.04;83.97;98338.47;4993313;28;20093;-61
2021/10/17 04:49:26;;;;;;;7.95;4.57;;;;;;;4.23;82.00;98326.25;4994329;28;20030;-60
2021/10/17 04:51:53;;;;;;;6.55;4.07;;;;;;;3.92;83.84;98326.53;4996683;28;20050;-60
2021/10/17 04:54:18;;;;;;;7.25;4.15;;;;;;;4.14;83.00;98329.78;4996905;28;20462;-60
2021/10/17 04:56:43;;;;;;;8.88;4.45;;;;;;;4.36;83.37;98327.81;4993764;28;20038;-60
2021/10/17 04:59:09;;;;;;;6.95;4.20;;;;;;;4.36;82.09;98330.41;4993899;28;20042;-60
2021/10/17 05:01:37;;;;;;;10.07;4.20;;;;;;;4.43;81.86;98321.72;4992553;28;20042;-60
2021/10/17 05:04:02;;;;;;;6.95;3.00;;;;;;;4.89;84.70;98327.19;4993250;28;20401;-59
2021/10/17 05:06:28;;;;;;;7.72;4.20;;;;;;;4.55;82.59;98320.72;4990912;28;20523;-60
2021/10/17 05:08:53;;;;;;;8.00;4.32;;;;;;;4.46;82.25;98317.38;4993348;28;20825;-61
2021/10/17 05:11:20;;;;;;;9.90;4.20;;;;;;;4.43;83.51;98316.56;4992266;28;20488;-61
2021/10/17 05:13:46;;;;;;;9.02;4.07;;;;;;;4.86;83.08;98322.06;4992962;28;20030;-60
2021/10/17 05:16:11;;;;;;;7.88;3.95;;;;;;;4.92;82.91;98322.00;4993852;28;20140;-61
2021/10/17 05:18:36;;;;;;;6.60;4.07;;;;;;;4.96;82.08;98326.22;4992810;28;20025;-60
2021/10/17 05:21:02;;;;;;;8.25;4.28;;;;;;;4.63;82.49;98323.19;4991287;28;20604;-62
2021/10/17 05:23:28;;;;;;;7.97;4.50;;;;;;;4.26;82.64;98326.19;4992217;28;20410;-60
2021/10/17 05:25:54;;;;;;;5.32;3.60;;;;;;;4.59;83.68;98321.53;4992405;28;20373;-60
2021/10/17 05:28:20;;;;;;;8.43;3.95;;;;;;;4.47;84.14;98326.81;4994936;28;20034;-60
2021/10/17 05:30:45;;;;;;;7.88;4.20;;;;;;;4.29;83.81;98327.91;4991947;28;20038;-62
2021/10/17 05:33:11;;;;;;;6.57;4.10;;;;;;;4.40;86.78;98329.50;4991402;28;20584;-59
2021/10/17 05:35:36;;;;;;;6.97;4.07;;;;;;;4.27;82.97;98325.34;4994046;28;20037;-60
2021/10/17 05:38:01;;;;;;;6.43;4.10;;;;;;;4.19;84.00;98327.13;4995387;28;20040;-59
2021/10/17 05:40:26;;;;;;;6.13;3.88;;;;;;;4.27;83.77;98330.50;5000438;28;20034;-59
2021/10/17 05:42:52;;;;;;;7.57;4.55;;;;;;;4.25;86.01;98327.94;4994677;28;20587;-60
2021/10/17 05:45:17;;;;;;;7.25;4.20;;;;;;;4.32;84.57;98336.47;4993205;28;20092;-60
2021/10/17 05:47:43;;;;;;;7.40;4.50;;;;;;;4.22;83.66;98333.13;4993403;28;20026;-59
2021/10/17 05:50:12;;;;;;;7.88;4.20;;;;;;;4.41;83.63;98332.91;4990497;28;20040;-60
2021/10/17 05:52:37;;;;;;;8.57;4.30;;;;;;;4.19;83.39;98330.59;4992021;28;20056;-58
2021/10/17 05:55:03;;;;;;;7.72;4.28;;;;;;;4.20;84.13;98334.88;4991558;28;20758;-60
2021/10/17 05:57:28;;;;;;;6.63;4.03;;;;;;;4.25;83.79;98337.41;4992916;28;20029;-60
2021/10/17 05:59:53;;;;;;;7.70;4.40;;;;;;;3.94;85.59;98337.69;4992871;28;20034;-59
2021/10/17 06:02:19;;;;;;;8.10;4.20;;;;;;;4.00;84.70;98335.06;4991338;28;20034;-60
2021/10/17 06:04:44;;;;;;;6.60;3.53;;;;;;;4.63;85.27;98339.56;4991713;28;20072;-60
2021/10/17 06:07:11;;;;;;;7.60;4.07;;;;;;;4.60;83.84;98338.75;4991736;28;20034;-61
2021/10/17 06:09:38;;;;;;;7.32;4.10;;;;;;;4.72;84.20;98338.59;4992394;28;20026;-61
2021/10/17 06:12:05;;;;;;;6.15;3.85;;;;;;;4.66;85.62;98341.25;4990650;28;20042;-62
2021/10/17 06:14:31;;;;;;;8.77;4.05;;;;;;;4.49;84.56;98345.78;4992466;28;20377;-61
2021/10/17 06:16:56;;;;;;;6.75;4.10;;;;;;;4.99;84.30;98354.66;4991460;28;20508;-61
2021/10/17 06:19:22;;;;;;;10.27;4.45;;;;;;;4.81;82.62;98348.81;4991450;28;20030;-61
2021/10/17 06:21:47;;;;;;;8.55;4.10;;;;;;;5.15;83.09;98347.56;4989811;28;20496;-60
2021/10/17 06:24:12;;;;;;;8.55;4.05;;;;;;;5.18;82.37;98348.38;4994308;28;20022;-61
2021/10/17 06:26:38;;;;;;;6.57;4.07;;;;;;;4.79;83.79;98358.31;4991221;28;20034;-61
2021/10/17 06:29:03;;;;;;;9.25;4.65;;;;;;;4.79;84.64;98355.72;4991766;28;20033;-62
2021/10/17 06:31:28;;;;;;;9.30;4.15;;;;;;;5.18;85.20;98358.72;4991611;28;20034;-61
2021/10/17 06:33:54;;;;;;;7.93;4.45;;;;;;;5.49;82.44;98355.66;4992999;28;20057;-61
2021/10/17 06:36:19;;;;;;;6.75;3.90;;;;;;;5.55;84.08;98352.13;4993322;28;20049;-60
2021/10/17 06:38:44;;;;;;;7.07;4.28;;;;;;;5.31;83.91;98350.75;4993845;28;20057;-60
2021/10/17 06:41:10;;;;;;;8.13;3.83;;;;;;;5.10;85.39;98365.69;4990328;28;20041;-61
2021/10/17 06:43:35;;;;;;;9.18;4.20;;;;;;;5.40;84.26;98363.56;4992934;28;20034;-59
2021/10/17 06:46:01;;;;;;;7.82;4.25;;;;;;;5.69;85.41;98359.69;4989703;28;20121;-59
2021/10/17 06:48:26;;;;;;;8.85;3.95;;;;;;;4.99;85.35;98370.16;4992279;28;20093;-61
2021/10/17 06:50:51;;;;;;;8.75;4.72;;;;;;;5.55;84.20;98360.75;4990067;28;20136;-61
2021/10/17 06:53:17;;;;;;;9.68;4.70;;;;;;;5.76;83.27;98356.97;4989021;28;20065;-60
2021/10/17 06:55:42;;;;;;;8.23;4.32;;;;;;;5.64;84.78;98361.50;4988602;28;20034;-60
2021/10/17 06:58:08;;;;;;;8.48;4.63;;;;;;;5.33;84.40;98361.94;4999147;28;20148;-62
2021/10/17 07:00:33;;;;;;;7.65;4.38;;;;;;;5.56;84.14;98370.22;4991729;28;20816;-60
2021/10/17 07:02:58;;;;;;;8.55;4.38;;;;;;;5.85;82.55;98366.34;4991264;28;20515;-61
2021/10/17 07:05:27;;;;;;;8.80;4.80;;;;;;;5.95;83.49;98367.91;4991867;28;20097;-60
2021/10/17 07:07:52;;;;;;;10.43;5.50;;;;;;;5.72;82.69;98375.19;4991199;28;20022;-60
2021/10/17 07:10:24;;;;;;;9.40;5.75;;;;;;;6.17;83.17;98362.38;4990835;28;20128;-60
2021/10/17 07:12:49;;;;;;;8.57;5.15;;;;;;;6.18;82.72;98367.53;4991751;28;20026;-62
2021/10/17 07:15:14;;;;;;;7.65;5.18;;;;;;;6.64;81.42;98365.84;4988065;28;20037;-61
2021/10/17 07:17:39;;;;;;;8.93;5.60;;;;;;;7.18;84.63;98366.47;4988034;28;20034;-61
2021/10/17 07:20:08;;;;;;;9.93;4.90;;;;;;;6.71;83.25;98367.44;4990137;28;20029;-62
2021/10/17 07:22:35;;;;;;;10.40;5.70;;;;;;;7.24;82.91;98361.16;4989517;28;20062;-61
2021/10/17 07:25:00;;;;;;;9.55;6.10;;;;;;;9.55;80.86;98366.38;4990308;28;20543;-62
2021/10/17 07:27:26;;;;;;;7.50;4.43;;;;;;;9.92;74.31;98366.97;4989686;28;20046;-60
2021/10/17 07:29:51;;;;;;;8.13;4.32;;;;;;;8.54;79.64;98372.75;4989529;28;20449;-60
2021/10/17 07:32:16;;;;;;;9.35;5.20;;;;;;;8.55;79.31;98379.69;4990336;28;20042;-62
2021/10/17 07:34:42;;;;;;;9.35;4.97;;;;;;;8.76;74.88;98366.97;4990488;28;20037;-62
2021/10/17 07:37:07;;;;;;;7.35;4.50;;;;;;;8.15;77.41;98375.47;4990318;28;20141;-60
2021/10/17 07:39:32;;;;;;;8.55;4.82;;;;;;;8.52;77.31;98377.16;4991096;28;20054;-60
2021/10/17 07:41:59;;;;;;;8.07;4.55;;;;;;;8.60;77.96;98372.63;4991649;28;20044;-60
2021/10/17 07:44:25;;;;;;;8.20;4.68;;;;;;;8.57;78.05;98377.03;4993188;28;20072;-63
2021/10/17 07:46:53;;;;;;;7.88;4.60;;;;;;;8.85;77.99;98377.13;4994475;28;20035;-60
2021/10/17 07:49:18;;;;;;;6.78;4.32;;;;;;;9.23;77.87;98375.19;4994211;28;20046;-61
2021/10/17 07:51:44;;;;;;;8.40;4.60;;;;;;;8.79;77.14;98372.94;4994006;28;20116;-62
2021/10/17 07:54:10;;;;;;;10.68;4.60;;;;;;;8.67;77.72;98376.75;4992719;28;20116;-62
2021/10/17 07:56:36;;;;;;;7.50;4.72;;;;;;;8.82;78.21;98382.41;4993556;28;20530;-62
2021/10/17 07:59:01;;;;;;;9.82;5.30;;;;;;;8.82;79.03;98382.41;4993271;28;20060;-60
2021/10/17 08:01:27;;;;;;;7.80;4.35;;;;;;;9.30;76.42;98384.53;4994379;28;20049;-63
2021/10/17 08:03:52;;;;;;;8.73;4.95;;;;;;;9.15;79.80;98390.16;4995544;28;20060;-60
2021/10/17 08:06:17;;;;;;;7.50;4.75;;;;;;;9.02;78.09;98385.31;4993318;28;20551;-62
2021/10/17 08:08:43;;;;;;;11.82;4.90;;;;;;;9.58;78.64;98384.53;4995779;28;20036;-61
2021/10/17 08:11:08;;;;;;;8.57;4.50;;;;;;;9.73;76.82;98383.19;4995794;28;20045;-60
2021/10/17 08:13:33;;;;;;;7.85;4.88;;;;;;;9.46;79.10;98390.09;4993202;28;20550;-59
2021/10/17 08:15:59;;;;;;;9.07;4.68;;;;;;;9.98;78.89;98388.47;4991458;28;20022;-62
2021/10/17 08:18:26;;;;;;;13.98;5.07;;;;;;;8.98;79.43;98386.28;4994157;28;20530;-61
2021/10/17 08:20:51;;;;;;;7.53;4.85;;;;;;;9.63;81.93;98386.97;4993976;28;20038;-62
2021/10/17 08:23:19;;;;;;;10.48;5.20;;;;;;;9.14;81.55;98393.66;4992471;28;20022;-62
2021/10/17 08:25:50;;;;;;;10.32;5.28;;;;;;;10.10;78.99;98395.03;4992985;28;20039;-62
2021/10/17 08:28:17;;;;;;;9.10;5.45;;;;;;;9.59;77.67;98403.59;4992873;28;20057;-62
2021/10/17 08:30:46;;;;;;;9.25;4.72;;;;;;;10.20;77.93;98392.97;4994659;28;20034;-61
2021/10/17 08:33:29;;;;;;;9.25;5.53;;;;;;;9.67;77.49;98393.81;4992759;28;20168;-62
2021/10/17 08:35:55;;;;;;;9.35;5.55;;;;;;;9.88;76.70;98392.28;4994190;28;20070;-61
2021/10/17 08:38:21;;;;;;;13.52;5.30;;;;;;;9.64;77.13;98399.94;4993128;28;20069;-62
2021/10/17 08:40:51;;;;;;;11.13;5.40;;;;;;;10.15;75.82;98400.97;4992045;28;20045;-63
2021/10/17 08:43:20;;;;;;;8.82;4.97;;;;;;;10.25;78.85;98411.09;4992467;28;20033;-62
2021/10/17 08:45:45;;;;;;;10.25;5.53;;;;;;;9.72;77.60;98402.31;4994158;28;20523;-63
2021/10/17 08:48:11;;;;;;;8.75;5.28;;;;;;;10.41;77.25;98401.88;4993282;28;20038;-62
2021/10/17 08:50:38;;;;;;;8.65;4.93;;;;;;;10.79;75.02;98407.53;4993327;28;20680;-61
2021/10/17 08:53:07;;;;;;;11.65;5.18;;;;;;;10.39;74.64;98398.47;4994040;28;20064;-62
2021/10/17 08:55:32;;;;;;;9.25;4.88;;;;;;;10.69;77.37;98401.75;4991631;28;20467;-62
2021/10/17 08:57:58;;;;;;;9.77;5.00;;;;;;;10.32;74.71;98407.41;4992886;28;20662;-61
2021/10/17 09:00:29;;;;;;;9.35;5.03;;;;;;;10.96;74.42;98399.94;4993065;28;20112;-63
2021/10/17 09:03:29;;;;;;;11.98;5.05;;;;;;;10.47;75.23;98406.03;4992583;28;20535;-63
2021/10/17 09:05:57;;;;;;;11.32;5.28;;;;;;;11.45;72.04;98401.63;4993924;28;20113;-61
2021/10/17 09:08:28;;;;;;;11.43;5.28;;;;;;;11.19;71.97;98401.72;4993200;28;20034;-63
2021/10/17 09:10:53;;;;;;;11.35;5.65;;;;;;;11.65;71.58;98393.91;4993917;28;20034;-64
2021/10/17 09:13:19;;;;;;;8.75;5.20;;;;;;;11.32;71.66;98402.13;4994485;28;20042;-62
2021/10/17 09:15:53;;;;;;;8.93;5.40;;;;;;;12.21;69.86;98394.31;4992315;28;20109;-62
2021/10/17 09:18:23;;;;;;;11.68;6.55;;;;;;;11.46;71.98;98392.91;4993220;28;20034;-62
2021/10/17 09:20:48;;;;;;;11.30;6.10;;;;;;;11.79;71.20;98395.94;4991673;28;20030;-63
2021/10/17 09:23:21;;;;;;;7.15;4.72;;;;;;;12.05;73.16;98396.72;4994315;28;20385;-61
2021/10/17 09:25:50;;;;;;;;;;;;;;;12.24;72.46;98402.03;4993101;28;20086;-61
2021/10/17 09:28:24;;;;;;;7.65;4.97;;;;;;;12.08;74.19;98389.59;4993148;28;19937;-61
2021/10/17 09:31:00;;;;;;;9.55;5.40;;;;;;;11.70;73.45;98389.31;4991782;28;20508;-62
2021/10/17 09:33:26;;;;;;;9.93;5.53;;;;;;;12.14;72.29;98397.16;4992161;28;20028;-61
2021/10/17 09:35:53;;;;;;;11.57;5.32;;;;;;;12.55;71.36;98391.13;4992341;28;20496;-61
2021/10/17 09:38:21;;;;;;;8.60;5.38;;;;;;;12.80;69.86;98385.69;4989557;28;20079;-61
2021/10/17 09:40:48;;;;;;;11.18;5.57;;;;;;;12.32;71.24;98392.09;4990275;28;20153;-63
2021/10/17 09:43:27;;;;;;;9.88;5.40;;;;;;;13.08;70.12;98389.69;4993993;28;20026;-62
2021/10/17 09:46:12;;;;;;;8.48;5.07;;;;;;;13.32;69.02;98385.13;4991905;28;20042;-62
2021/10/17 09:48:38;;;;;;;8.77;5.53;;;;;;;13.04;68.82;98390.75;4992174;28;20436;-63
2021/10/17 09:51:17;;;;;;;10.00;5.88;;;;;;;13.26;69.68;98388.84;4990594;28;20562;-62
2021/10/17 09:53:47;;;;;;;12.27;5.90;;;;;;;13.03;70.75;98384.69;4991814;28;20117;-62
2021/10/17 09:56:37;;;;;;;10.13;6.10;;;;;;;12.78;69.57;98382.28;4991386;28;20111;-63
2021/10/17 09:59:04;;;;;;;10.55;6.30;;;;;;;13.05;69.76;98384.56;4991810;28;20060;-61
2021/10/17 10:01:31;;;;;;;12.25;5.95;;;;;;;13.25;68.80;98386.31;4992471;28;20038;-61
2021/10/17 10:04:01;;;;;;;11.82;6.70;;;;;;;13.81;67.09;98376.75;4991703;28;20708;-62
2021/10/17 10:06:31;;;;;;;9.23;5.93;;;;;;;13.71;68.25;98371.09;4999630;28;20128;-61
2021/10/17 10:08:58;;;;;;;8.35;5.63;;;;;;;13.52;69.29;98376.34;4994561;28;20026;-61
2021/10/17 10:11:26;;;;;;;10.27;6.63;;;;;;;13.04;69.29;98368.03;4991160;28;20555;-62
2021/10/17 10:13:54;;;;;;;11.20;6.20;;;;;;;13.58;68.00;98369.97;4992396;28;20057;-63
2021/10/17 10:16:22;;;;;;;16.02;6.53;;;;;;;12.99;69.53;98366.53;4991288;28;20499;-61
2021/10/17 10:18:51;;;;;;;11.27;6.88;;;;;;;13.17;68.83;98368.31;4991838;28;20089;-63
2021/10/17 10:21:17;;;;;;;9.77;6.30;;;;;;;14.35;68.82;98356.56;4990810;28;20058;-62
2021/10/17 10:23:51;;;;;;;11.98;6.95;;;;;;;14.09;67.26;98352.63;4992709;28;20036;-62
2021/10/17 10:26:19;;;;;;;11.40;7.22;;;;;;;14.42;67.15;98354.50;4990888;28;20066;-60
2021/10/17 10:28:45;;;;;;;11.98;6.40;;;;;;;14.83;66.07;98344.50;4999949;28;20058;-62
2021/10/17 10:31:52;;;;;;;13.50;6.82;;;;;;;14.80;65.10;98349.91;4990136;28;20042;-60
2021/10/17 10:34:32;;;;;;;13.98;7.10;;;;;;;14.22;67.52;98343.22;4990866;28;20110;-60
2021/10/17 10:37:12;;;;;;;10.90;6.82;;;;;;;14.62;66.67;98343.84;4989747;28;20034;-63
2021/10/17 10:39:37;;;;;;;10.25;6.70;;;;;;;15.34;64.70;98336.50;4991439;28;20510;-62
2021/10/17 10:42:16;;;;;;;9.48;6.28;;;;;;;15.08;65.17;98337.09;4989693;28;20030;-62
2021/10/17 10:44:41;;;;;;;13.30;6.47;;;;;;;14.59;67.62;98330.91;4990940;28;20034;-63
2021/10/17 10:47:24;;;;;;;10.20;6.53;;;;;;;14.60;66.88;98337.00;4992261;28;20089;-61
2021/10/17 10:49:53;;;;;;;;;;;;;;;15.16;65.97;98333.13;4990982;28;20206;-61
2021/10/17 10:52:21;;;;;;;13.63;6.30;;;;;;;15.04;65.33;98336.41;4988805;28;19922;-61
2021/10/17 10:54:47;;;;;;;10.27;6.53;;;;;;;14.52;67.19;98341.72;4991951;28;20528;-61
2021/10/17 10:57:24;;;;;;;11.30;6.63;;;;;;;15.26;66.13;98337.88;4989366;28;20137;-60
2021/10/17 10:59:58;;;;;;;11.25;7.07;;;;;;;14.87;66.36;98339.06;4992304;28;20057;-60
2021/10/17 11:02:23;;;;;;;11.57;7.15;;;;;;;15.04;65.75;98336.41;4990519;28;20046;-62
2021/10/17 11:04:49;;;;;;;12.98;7.20;;;;;;;14.94;66.33;98340.44;4993048;28;20064;-61
2021/10/17 11:07:30;;;;;;;15.70;8.15;;;;;;;15.22;64.99;98340.66;4990451;28;20045;-61
2021/10/17 11:10:22;;;;;;;12.90;7.78;;;;;;;15.60;63.92;98334.22;4990790;28;20030;-62
2021/10/17 11:12:47;;;;;;;13.77;7.82;;;;;;;15.70;63.98;98337.19;4964625;28;20110;-61
2021/10/17 11:15:15;;;;;;;14.18;8.35;;;;;;;15.36;64.90;98336.44;4970968;28;20035;-61
2021/10/17 11:18:08;;;;;;;13.60;8.25;;;;;;;16.00;63.59;98332.81;4991286;28;20136;-62
2021/10/17 11:20:34;;;;;;;;;;;;;;;14.55;66.38;98331.94;4991089;28;20041;-62
2021/10/17 11:23:00;;;;;;;14.70;8.77;;;;;;;15.51;65.04;98327.72;4989229;28;19944;-63
2021/10/17 11:25:27;;;;;;;14.68;8.73;;;;;;;15.88;63.51;98333.53;4991152;28;20144;-61
2021/10/17 11:27:53;;;;;;;12.68;8.50;;;;;;;16.14;63.16;98333.81;4991928;28;20033;-63
2021/10/17 11:30:38;;;;;;;13.15;8.23;;;;;;;15.54;64.49;98330.16;4988231;28;20080;-62
2021/10/17 11:33:16;;;;;;;14.13;8.73;;;;;;;15.22;64.69;98330.16;4991049;28;20087;-63
2021/10/17 11:35:42;;;;;;;16.38;8.80;;;;;;;15.84;62.85;98332.00;4990029;28;20120;-62
2021/10/17 11:38:07;;;;;;;13.90;8.48;;;;;;;16.33;61.60;98329.16;4989729;28;20177;-62
2021/10/17 11:40:35;;;;;;;16.15;9.18;;;;;;;16.05;61.74;98331.72;4988137;28;20048;-63